Time;durP1;ratioP1;P1;durP2;ratioP2;P2;SDS_P1;SDS_P2;PMS_P1;PMS_P2;Temp;Humidity;BMP_temperature;BMP_pressure;BME280_temperature;BME280_humidity;BME280_pressure;Samples;Min_cycle;Max_cycle;Signal;HPM_P1;HPM_P2
2022/10/04 00:02:23;;;;;;;18.38;4.63;;;;;;;7.46;100.00;101615.91;4919734;29;20545;-78
2022/10/04 00:04:56;;;;;;;;;;;;;;;7.62;100.00;101619.69;4919615;29;20105;-77
2022/10/04 00:07:29;;;;;;;27.55;5.93;;;;;;;7.69;100.00;101608.16;4919161;29;19925;-78
2022/10/04 00:10:03;;;;;;;21.70;7.18;;;;;;;7.92;100.00;101624.50;4921091;29;20036;-78
2022/10/04 00:12:39;;;;;;;29.42;6.45;;;;;;;8.14;100.00;101612.31;4937716;29;20399;-78
2022/10/04 00:15:38;;;;;;;24.92;6.80;;;;;;;8.15;100.00;101597.09;4937817;29;20102;-78
2022/10/04 00:18:09;;;;;;;28.52;7.65;;;;;;;8.41;100.00;101621.13;4915386;29;20455;-78
2022/10/04 00:20:47;;;;;;;45.00;8.55;;;;;;;8.54;100.00;101612.59;4937338;29;20039;-78
2022/10/04 00:23:21;;;;;;;28.85;7.38;;;;;;;8.57;100.00;101614.97;4937014;29;20079;-78
2022/10/04 00:25:47;;;;;;;;;;;;;;;8.63;100.00;101616.97;4937388;29;20099;-78
2022/10/04 00:28:24;;;;;;;36.33;8.20;;;;;;;8.71;100.00;101611.63;4918836;29;20369;-78
2022/10/04 00:31:21;;;;;;;33.20;8.68;;;;;;;8.78;100.00;101604.59;4936228;29;20036;-78
2022/10/04 00:33:50;;;;;;;34.50;8.05;;;;;;;8.92;100.00;101605.75;4918652;29;20031;-78
2022/10/04 00:36:25;;;;;;;42.08;8.73;;;;;;;9.03;100.00;101610.78;4918392;29;20031;-77
2022/10/04 00:39:05;;;;;;;56.60;9.85;;;;;;;9.15;100.00;101608.59;4935175;29;20542;-78
2022/10/04 00:41:46;;;;;;;60.67;9.93;;;;;;;9.21;100.00;101605.22;4917602;29;20055;-79
2022/10/04 00:44:25;;;;;;;98.63;11.85;;;;;;;9.27;100.00;101603.69;4918007;29;20046;-78
2022/10/04 00:46:53;;;;;;;99.45;11.65;;;;;;;9.10;100.00;101576.84;4934912;29;20494;-78
2022/10/04 00:49:23;;;;;;;147.23;12.45;;;;;;;9.22;100.00;101574.66;4917303;29;20036;-78
2022/10/04 00:52:01;;;;;;;88.05;9.68;;;;;;;9.25;100.00;101578.88;4917431;29;20028;-79
2022/10/04 00:54:33;;;;;;;87.95;9.25;;;;;;;9.06;100.00;101562.09;4917543;29;20483;-78
2022/10/04 00:57:06;;;;;;;122.80;9.20;;;;;;;9.06;100.00;101563.97;4934637;29;20040;-78
2022/10/04 00:59:43;;;;;;;120.35;10.70;;;;;;;9.04;100.00;101571.34;4918396;29;20036;-80
2022/10/04 01:02:20;;;;;;;122.88;10.27;;;;;;;8.93;100.00;101549.22;4938853;29;20038;-78
2022/10/04 01:05:09;;;;;;;139.05;11.20;;;;;;;9.23;100.00;101595.13;4918066;29;20035;-78
2022/10/04 01:07:42;;;;;;;96.82;11.57;;;;;;;9.06;100.00;101555.91;4922039;29;20030;-78
2022/10/04 01:10:18;;;;;;;83.45;9.38;;;;;;;8.96;100.00;101547.19;4922229;29;20119;-78
2022/10/04 01:12:47;;;;;;;93.07;9.65;;;;;;;9.23;100.00;101584.41;4938781;29;20023;-78
2022/10/04 01:15:37;;;;;;;116.85;10.55;;;;;;;9.31;100.00;101592.44;4921541;29;20031;-78
2022/10/04 01:18:17;;;;;;;115.65;9.70;;;;;;;9.41;100.00;101593.09;4923604;29;20035;-78
2022/10/04 01:21:01;;;;;;;94.45;10.38;;;;;;;9.47;100.00;101590.72;4921348;29;20027;-78
2022/10/04 01:23:40;;;;;;;152.35;11.05;;;;;;;9.49;100.00;101589.53;4938142;29;20019;-78
2022/10/04 01:26:28;;;;;;;86.75;10.48;;;;;;;9.54;100.00;101599.78;4906723;29;20028;-78
2022/10/04 01:28:55;;;;;;;149.45;9.95;;;;;;;9.42;100.00;101580.50;4937961;29;20032;-78
2022/10/04 01:31:21;;;;;;;91.10;9.15;;;;;;;9.25;100.00;101585.06;4920706;29;20123;-78
2022/10/04 01:33:47;;;;;;;128.55;10.30;;;;;;;9.17;100.00;101591.31;4887754;29;20032;-78
2022/10/04 01:36:13;;;;;;;62.22;8.85;;;;;;;8.85;100.00;101535.81;4901656;29;20097;-79
2022/10/04 01:38:38;;;;;;;95.03;10.43;;;;;;;9.19;100.00;101580.38;4901734;29;20028;-78
2022/10/04 01:41:07;;;;;;;83.75;10.93;;;;;;;9.23;100.00;101565.59;4882526;29;20090;-78
2022/10/04 01:43:38;;;;;;;78.85;11.18;;;;;;;9.14;100.00;101545.16;4937678;29;20062;-78
2022/10/04 01:46:19;;;;;;;54.97;10.05;;;;;;;9.57;100.00;101594.03;4937368;29;20051;-78
2022/10/04 01:48:45;;;;;;;53.85;10.30;;;;;;;9.44;100.00;101562.38;4920492;29;20054;-78
2022/10/04 01:51:21;;;;;;;63.17;10.45;;;;;;;9.46;100.00;101557.63;4901557;29;20576;-78
2022/10/04 01:53:54;;;;;;;51.60;9.07;;;;;;;9.28;100.00;101538.25;4934480;29;20036;-78
2022/10/04 01:56:26;;;;;;;50.97;9.63;;;;;;;9.50;100.00;101558.13;4919382;29;20050;-79
2022/10/04 01:58:58;;;;;;;43.65;8.77;;;;;;;9.64;100.00;101581.59;4920315;29;20024;-78
2022/10/04 02:01:38;;;;;;;50.15;9.43;;;;;;;9.68;100.00;101574.03;4901940;29;20123;-79
2022/10/04 02:04:11;;;;;;;47.00;8.27;;;;;;;9.54;100.00;101557.63;4901725;29;20079;-79
2022/10/04 02:06:40;;;;;;;45.08;8.43;;;;;;;9.62;100.00;101562.13;4909600;29;20028;-79
2022/10/04 02:09:17;;;;;;;52.95;8.52;;;;;;;9.65;100.00;101548.34;4920117;29;20031;-78
2022/10/04 02:11:46;;;;;;;54.17;9.35;;;;;;;9.51;100.00;101511.47;4935696;29;20039;-78
2022/10/04 02:14:16;;;;;;;50.35;8.40;;;;;;;9.71;100.00;101547.66;4936957;29;20036;-79
2022/10/04 02:16:45;;;;;;;51.25;8.98;;;;;;;10.00;100.00;101567.63;4936859;29;20103;-78
2022/10/04 02:19:14;;;;;;;58.60;8.85;;;;;;;9.84;100.00;101533.63;4936697;29;20036;-78
2022/10/04 02:21:40;;;;;;;48.97;8.43;;;;;;;9.89;100.00;101525.88;4919462;29;20054;-78
2022/10/04 02:24:08;;;;;;;49.63;8.45;;;;;;;10.03;100.00;101530.50;4904119;29;20451;-78
2022/10/04 02:26:33;;;;;;;50.38;7.63;;;;;;;10.30;100.00;101558.75;4936774;29;20565;-78
2022/10/04 02:28:58;;;;;;;53.25;8.20;;;;;;;10.24;100.00;101518.25;4903787;29;20050;-79
2022/10/04 02:34:09;;;;;;;56.60;7.07;;;;;;;10.50;100.00;101547.53;4922173;29;20046;-78
2022/10/04 02:36:35;;;;;;;58.13;8.18;;;;;;;10.62;100.00;101551.44;4900645;29;20065;-78
2022/10/04 02:39:10;;;;;;;54.25;8.27;;;;;;;10.65;100.00;101545.69;4912163;29;20038;-78
2022/10/04 02:41:45;;;;;;;56.83;7.63;;;;;;;10.48;100.00;101506.50;4919450;29;20046;-78
2022/10/04 02:44:39;;;;;;;56.55;6.78;;;;;;;10.69;100.00;101540.78;4919379;29;20092;-78
2022/10/04 02:47:12;;;;;;;46.73;6.97;;;;;;;10.72;100.00;101524.28;4915749;29;20051;-78
2022/10/04 02:49:51;;;;;;;55.08;7.90;;;;;;;10.72;100.00;101529.66;4918775;29;20345;-78
2022/10/04 02:52:16;;;;;;;42.03;7.22;;;;;;;10.73;100.00;101526.78;4937425;29;20020;-78
2022/10/04 02:55:11;;;;;;;55.00;7.43;;;;;;;10.68;100.00;101523.81;4936731;29;20062;-79
2022/10/04 02:57:41;;;;;;;70.67;7.93;;;;;;;10.72;100.00;101535.88;4915049;29;20111;-78
2022/10/04 03:00:15;;;;;;;41.22;6.50;;;;;;;10.67;100.00;101534.75;4918892;29;20333;-79
2022/10/04 03:03:01;;;;;;;46.35;6.70;;;;;;;10.55;100.00;101531.66;4935963;29;20032;-78
2022/10/04 03:05:27;;;;;;;54.00;7.13;;;;;;;10.47;100.00;101550.56;4921358;29;20511;-78
2022/10/04 03:07:52;;;;;;;57.00;7.60;;;;;;;10.23;100.00;101508.50;4902692;29;20039;-78
2022/10/04 03:10:17;;;;;;;58.45;8.63;;;;;;;10.29;100.00;101519.41;4918443;29;20047;-79
2022/10/04 03:12:50;;;;;;;44.50;6.53;;;;;;;10.37;100.00;101534.66;4899816;29;20119;-78
2022/10/04 03:15:15;;;;;;;47.60;7.85;;;;;;;10.15;100.00;101489.75;4912582;29;20047;-78
2022/10/04 03:17:43;;;;;;;51.35;7.32;;;;;;;10.09;100.00;101484.06;4918191;29;20043;-78
2022/10/04 03:20:13;;;;;;;53.53;7.53;;;;;;;10.26;100.00;101509.00;4898943;29;20046;-78
2022/10/04 03:22:43;;;;;;;47.10;7.80;;;;;;;10.41;100.00;101517.16;4904334;29;20039;-78
2022/10/04 03:25:16;;;;;;;44.67;7.05;;;;;;;10.49;100.00;101532.38;4928515;29;20043;-79
2022/10/04 03:27:42;;;;;;;37.80;6.15;;;;;;;10.54;100.00;101524.59;4917952;29;20039;-78
2022/10/04 03:30:12;;;;;;;44.75;7.00;;;;;;;10.52;100.00;101513.19;4917736;29;20079;-78
2022/10/04 03:32:38;;;;;;;44.30;6.93;;;;;;;10.60;100.00;101506.91;4934060;29;20043;-78
2022/10/04 03:35:07;;;;;;;58.58;7.40;;;;;;;10.70;100.00;101515.56;4899879;29;20414;-79
2022/10/04 03:37:37;;;;;;;42.63;6.07;;;;;;;10.81;100.00;101520.50;4917511;29;20038;-79
2022/10/04 03:40:08;;;;;;;49.28;7.00;;;;;;;10.69;100.00;101492.34;4923228;29;20446;-79
2022/10/04 03:42:36;;;;;;;51.10;6.70;;;;;;;10.89;100.00;101519.56;4921383;29;20028;-79
2022/10/04 03:45:14;;;;;;;47.83;7.15;;;;;;;10.61;100.00;101462.81;4938703;29;20050;-79
2022/10/04 03:47:44;;;;;;;44.80;6.43;;;;;;;10.69;100.00;101468.09;4921282;29;20083;-79
2022/10/04 03:50:25;;;;;;;49.78;6.10;;;;;;;10.99;100.00;101512.91;4920248;29;20031;-78
2022/10/04 03:52:57;;;;;;;44.15;5.90;;;;;;;10.74;100.00;101471.94;4937771;29;20135;-78
2022/10/04 03:55:30;;;;;;;43.15;6.55;;;;;;;10.90;100.00;101483.56;4923584;29;20031;-78
2022/10/04 03:57:56;;;;;;;53.33;6.25;;;;;;;11.02;100.00;101509.00;4921011;29;20038;-79
2022/10/04 04:00:21;;;;;;;41.33;6.35;;;;;;;10.97;100.00;101511.41;4905072;29;20036;-79
2022/10/04 04:02:57;;;;;;;52.00;7.35;;;;;;;10.85;100.00;101502.09;4917596;29;20046;-77
2022/10/04 04:05:26;;;;;;;37.05;5.70;;;;;;;10.80;100.00;101505.38;4935497;29;20030;-78
2022/10/04 04:08:11;;;;;;;37.00;6.60;;;;;;;10.75;100.00;101497.81;4917533;29;20514;-78
2022/10/04 04:10:49;;;;;;;49.28;7.38;;;;;;;10.69;100.00;101501.25;4934944;29;20027;-78
2022/10/04 04:13:34;;;;;;;46.65;6.63;;;;;;;10.42;100.00;101462.31;4921180;29;20047;-79
2022/10/04 04:16:01;;;;;;;44.13;6.03;;;;;;;10.47;100.00;101488.69;4901715;29;20460;-78
2022/10/04 04:18:31;;;;;;;50.25;6.88;;;;;;;10.45;100.00;101498.78;4908673;29;20036;-78
2022/10/04 04:21:00;;;;;;;38.83;6.35;;;;;;;10.34;100.00;101483.91;4921484;29;20483;-78
2022/10/04 04:23:33;;;;;;;39.28;5.97;;;;;;;10.21;100.00;101465.66;4936248;29;20044;-78
2022/10/04 04:26:38;;;;;;;35.97;5.68;;;;;;;10.34;100.00;101490.13;4942082;29;20035;-78
2022/10/04 04:29:18;;;;;;;24.63;4.40;;;;;;;10.29;100.00;101497.88;4909615;29;20066;-78
2022/10/04 04:31:44;;;;;;;50.35;6.03;;;;;;;10.32;100.00;101502.06;4948630;29;20220;-79
2022/10/04 04:34:28;;;;;;;54.88;5.75;;;;;;;10.31;100.00;101487.78;4946379;29;20390;-79
2022/10/04 04:37:13;;;;;;;36.45;5.85;;;;;;;10.55;100.00;101499.38;4937133;29;20019;-78
2022/10/04 04:40:09;;;;;;;43.92;6.03;;;;;;;10.65;100.00;101496.41;4955643;29;20043;-78
2022/10/04 04:42:36;;;;;;;44.22;5.65;;;;;;;10.59;100.00;101465.69;4956431;29;20024;-78
2022/10/04 04:45:13;;;;;;;41.63;5.20;;;;;;;10.63;100.00;101468.84;4956324;29;20078;-80
2022/10/04 04:47:43;;;;;;;41.72;4.80;;;;;;;10.95;100.00;101494.59;4954508;29;20510;-78
2022/10/04 04:50:20;;;;;;;46.00;5.43;;;;;;;11.04;100.00;101491.63;4956197;29;20038;-78
2022/10/04 04:52:51;;;;;;;39.63;4.85;;;;;;;11.01;100.00;101470.47;4941763;29;20034;-78
2022/10/04 04:55:25;;;;;;;37.10;4.90;;;;;;;11.17;100.00;101480.22;4934470;29;20455;-78
2022/10/04 04:57:54;;;;;;;;;;;;;;;11.24;100.00;101489.22;4920751;29;20499;-77
2022/10/04 05:00:25;;;;;;;37.80;5.03;;;;;;;11.26;100.00;101489.03;4915894;29;19915;-77
2022/10/04 05:02:55;;;;;;;47.20;5.13;;;;;;;11.23;100.00;101476.78;4928555;29;20062;-78
2022/10/04 05:05:26;;;;;;;37.05;5.65;;;;;;;11.31;100.00;101477.69;4935816;29;20038;-77
2022/10/04 05:08:15;;;;;;;41.72;5.85;;;;;;;11.34;100.00;101471.94;4918671;29;20032;-77
2022/10/04 05:10:54;;;;;;;41.40;4.88;;;;;;;11.35;100.00;101473.59;4935472;29;20124;-77
2022/10/04 05:13:31;;;;;;;37.38;5.20;;;;;;;11.05;100.00;101417.06;4936098;29;20032;-77
2022/10/04 05:16:00;;;;;;;42.38;5.00;;;;;;;11.05;100.00;101417.06;4916500;29;20035;-77
2022/10/04 05:18:33;;;;;;;40.15;4.90;;;;;;;11.12;100.00;101417.16;4902095;29;20551;-77
2022/10/04 05:21:21;;;;;;;42.58;4.88;;;;;;;11.35;100.00;101465.50;4929523;29;20043;-77
2022/10/04 05:23:48;;;;;;;39.72;5.20;;;;;;;11.35;100.00;101468.22;4937895;29;20040;-77
2022/10/04 05:26:29;;;;;;;41.17;4.78;;;;;;;11.33;100.00;101467.59;4920499;29;20028;-77
2022/10/04 05:29:00;;;;;;;46.80;5.10;;;;;;;11.24;100.00;101464.97;4938070;29;20026;-77
2022/10/04 05:31:26;;;;;;;41.85;4.80;;;;;;;11.31;100.00;101459.66;4937504;29;20041;-77
2022/10/04 05:33:56;;;;;;;43.80;5.20;;;;;;;11.32;100.00;101466.72;4937389;29;20055;-77
2022/10/04 05:36:33;;;;;;;42.10;4.72;;;;;;;11.31;100.00;101464.22;4937357;29;20027;-77
2022/10/04 05:39:19;;;;;;;57.00;5.20;;;;;;;11.14;100.00;101434.78;4920244;29;20059;-77
2022/10/04 05:42:00;;;;;;;37.47;4.78;;;;;;;11.12;100.00;101427.91;4936780;29;20547;-78
2022/10/04 05:44:47;;;;;;;36.60;5.00;;;;;;;11.20;100.00;101444.81;4937565;29;20110;-77
2022/10/04 05:47:14;;;;;;;51.28;5.57;;;;;;;11.06;100.00;101434.91;4923284;29;20044;-77
2022/10/04 05:49:43;;;;;;;41.80;4.85;;;;;;;11.18;100.00;101460.31;4905085;29;20079;-78
2022/10/04 05:52:29;;;;;;;37.33;4.88;;;;;;;11.17;100.00;101453.28;4904448;29;20035;-77
2022/10/04 05:55:31;;;;;;;44.78;5.85;;;;;;;11.18;100.00;101457.63;4912116;29;20106;-77
2022/10/04 05:58:18;;;;;;;37.03;4.78;;;;;;;11.18;100.00;101454.94;4920427;29;20046;-77
2022/10/04 06:01:16;;;;;;;33.22;4.90;;;;;;;11.19;100.00;101450.38;4938218;29;20042;-76
2022/10/04 06:03:48;;;;;;;35.22;4.78;;;;;;;11.19;100.00;101445.00;4919966;29;20035;-77
2022/10/04 06:06:48;;;;;;;37.15;4.93;;;;;;;11.21;100.00;101442.97;4937407;29;20063;-76
2022/10/04 06:09:28;;;;;;;38.50;4.60;;;;;;;11.17;100.00;101426.34;4903899;29;20039;-77
2022/10/04 06:12:25;;;;;;;36.00;4.25;;;;;;;11.18;100.00;101411.84;4937485;29;20036;-77
2022/10/04 06:15:08;;;;;;;28.33;4.38;;;;;;;11.48;100.00;101450.34;4937262;29;20031;-77
2022/10/04 06:17:46;;;;;;;36.42;5.25;;;;;;;11.55;100.00;101436.09;4919929;29;20031;-77
2022/10/04 06:20:20;;;;;;;38.33;4.90;;;;;;;11.63;100.00;101446.78;4906389;29;20036;-79
2022/10/04 06:22:50;;;;;;;38.25;4.82;;;;;;;11.64;100.00;101441.19;4911909;29;20114;-80
2022/10/04 06:25:27;;;;;;;46.28;4.68;;;;;;;11.52;100.00;101410.38;4916759;29;20149;-80
2022/10/04 06:28:14;;;;;;;35.33;4.95;;;;;;;11.75;100.00;101442.56;4927955;29;20037;-79
2022/10/04 06:31:01;;;;;;;37.03;4.47;;;;;;;11.75;100.00;101440.72;4946808;29;20043;-79
2022/10/04 06:33:56;;;;;;;36.90;4.65;;;;;;;11.47;100.00;101385.88;4944319;29;20024;-79
2022/10/04 06:36:48;;;;;;;31.27;4.75;;;;;;;11.74;100.00;101414.75;4902580;29;20043;-79
2022/10/04 06:39:42;;;;;;;38.50;5.00;;;;;;;11.93;100.00;101444.84;4942988;29;20043;-79
2022/10/04 06:42:22;;;;;;;32.15;5.13;;;;;;;12.01;100.00;101442.00;4927488;29;20498;-78
2022/10/04 06:44:57;;;;;;;38.83;5.68;;;;;;;12.06;100.00;101439.59;4944126;29;20162;-79
2022/10/04 06:48:05;;;;;;;35.05;4.97;;;;;;;12.09;100.00;101431.13;4926047;29;20032;-78
2022/10/04 06:51:01;;;;;;;34.50;4.68;;;;;;;12.30;100.00;101443.75;4925966;29;20035;-78
2022/10/04 06:53:50;;;;;;;33.90;4.80;;;;;;;12.43;100.00;101449.25;4925720;29;20171;-80
2022/10/04 06:56:40;;;;;;;41.53;5.30;;;;;;;12.53;100.00;101448.91;4925310;29;20087;-79
2022/10/04 06:59:18;;;;;;;32.92;4.72;;;;;;;12.62;100.00;101436.09;4925264;29;20031;-79
2022/10/04 07:01:53;;;;;;;36.38;5.63;;;;;;;12.59;100.00;101415.72;4943713;29;20039;-80
2022/10/04 07:04:42;;;;;;;37.70;5.05;;;;;;;12.79;100.00;101432.06;4924042;29;20098;-78
2022/10/04 07:07:34;;;;;;;46.38;5.80;;;;;;;12.85;100.00;101436.66;4944103;29;20039;-79
2022/10/04 07:10:12;;;;;;;39.92;5.80;;;;;;;12.77;100.00;101422.47;4944194;29;20035;-78
2022/10/04 07:12:40;;;;;;;42.30;5.57;;;;;;;12.70;100.00;101400.84;4927931;29;20027;-79
2022/10/04 07:15:16;;;;;;;36.70;6.32;;;;;;;12.90;100.00;101444.16;4945019;29;20035;-80
2022/10/04 07:17:45;;;;;;;27.33;6.10;;;;;;;12.85;100.00;101438.53;4947390;29;20035;-80
2022/10/04 07:20:32;;;;;;;42.92;7.20;;;;;;;12.91;100.00;101449.38;4947348;29;20039;-79
2022/10/04 07:23:05;;;;;;;34.13;6.22;;;;;;;13.00;100.00;101451.91;4926361;29;20028;-79
2022/10/04 07:25:42;;;;;;;37.40;6.68;;;;;;;13.02;100.00;101447.16;4944403;29;20486;-79
2022/10/04 07:31:02;;;;;;;30.45;6.60;;;;;;;13.10;100.00;101449.69;4944734;29;20046;-79
2022/10/04 07:33:32;;;;;;;31.15;6.60;;;;;;;13.01;100.00;101430.09;4943889;29;20031;-79
2022/10/04 07:36:11;;;;;;;34.10;6.07;;;;;;;13.14;100.00;101451.78;4943184;29;20055;-79
2022/10/04 07:38:45;;;;;;;29.17;6.00;;;;;;;13.20;100.00;101454.72;4944622;29;20031;-79
2022/10/04 07:41:17;;;;;;;24.95;5.95;;;;;;;12.96;100.00;101426.34;4929065;29;20087;-79
2022/10/04 07:44:11;;;;;;;26.77;6.03;;;;;;;13.13;100.00;101463.63;4927725;29;20060;-79
2022/10/04 07:46:36;;;;;;;34.22;6.75;;;;;;;13.20;100.00;101468.22;4926861;29;20040;-79
2022/10/04 07:49:02;;;;;;;25.77;6.20;;;;;;;13.25;100.00;101473.91;4944715;29;20043;-79
2022/10/04 07:51:42;;;;;;;29.58;6.13;;;;;;;13.22;100.00;101472.41;4946954;29;20518;-79
2022/10/04 07:54:29;;;;;;;26.05;6.00;;;;;;;13.12;100.00;101459.25;4932084;29;20035;-80
2022/10/04 07:57:00;;;;;;;33.80;7.50;;;;;;;13.15;100.00;101456.16;4925946;29;20035;-80
2022/10/04 07:59:39;;;;;;;34.88;7.57;;;;;;;13.40;100.00;101478.13;4926351;29;20440;-80
2022/10/04 08:02:25;;;;;;;32.72;5.93;;;;;;;13.49;100.00;101480.66;4944285;29;20106;-80
2022/10/04 08:05:22;;;;;;;27.08;5.82;;;;;;;13.51;100.00;101478.56;4944071;29;20034;-80
2022/10/04 08:08:12;;;;;;;29.33;5.97;;;;;;;13.53;100.00;101476.50;4925655;29;20526;-80
2022/10/04 08:10:55;;;;;;;34.08;6.55;;;;;;;13.57;100.00;101469.66;4942403;29;20027;-80
2022/10/04 08:13:32;;;;;;;28.40;4.80;;;;;;;13.60;100.00;101478.19;4941842;29;20110;-80
2022/10/04 08:16:29;;;;;;;27.08;5.50;;;;;;;13.63;100.00;101479.66;4940486;29;20031;-80
2022/10/04 08:19:34;;;;;;;30.77;5.28;;;;;;;13.69;100.00;101475.31;4927373;29;20091;-80
2022/10/04 08:22:17;;;;;;;25.23;4.67;;;;;;;13.61;100.00;101457.44;4922563;29;20039;-80
2022/10/04 08:24:57;;;;;;;17.70;3.88;;;;;;;13.65;100.00;101466.78;4941149;29;20345;-80
2022/10/04 08:29:41;;;;;;;22.45;4.18;;;;;;;13.43;100.00;101428.22;4917632;29;20484;-80
2022/10/04 08:31:19;;;;;;;25.75;4.07;;;;;;;13.57;100.00;101424.53;4926501;29;20495;-80
2022/10/04 08:33:47;;;;;;;28.25;3.53;;;;;;;13.89;100.00;101475.38;4885119;29;20050;-80
2022/10/04 08:36:43;;;;;;;25.90;4.00;;;;;;;13.96;100.00;101479.75;4938788;29;20028;-80
2022/10/04 08:39:50;;;;;;;19.98;3.63;;;;;;;14.00;100.00;101481.00;4923097;29;20040;-80
2022/10/04 08:42:42;;;;;;;22.63;4.00;;;;;;;13.97;100.00;101484.16;4897030;29;20055;-80
2022/10/04 08:45:31;;;;;;;18.95;3.75;;;;;;;14.07;100.00;101484.59;4884064;29;20056;-80
2022/10/04 08:48:23;;;;;;;22.38;3.83;;;;;;;14.10;100.00;101477.91;4920603;29;20509;-80
2022/10/04 08:51:44;;;;;;;22.15;3.80;;;;;;;14.10;100.00;101467.94;4938133;29;20451;-80
2022/10/04 08:54:24;;;;;;;23.92;4.22;;;;;;;14.14;100.00;101462.09;4793320;29;20086;-80
2022/10/04 08:57:21;;;;;;;22.20;5.38;;;;;;;14.16;100.00;101457.31;4936343;29;20071;-80
2022/10/04 09:00:04;;;;;;;22.45;4.22;;;;;;;14.12;100.00;101446.06;4935605;29;20534;-80
2022/10/04 09:02:39;;;;;;;19.60;4.25;;;;;;;14.24;100.00;101459.84;4918836;29;20031;-80
2022/10/04 09:05:38;;;;;;;20.73;3.83;;;;;;;14.27;100.00;101457.53;4918964;29;20078;-81
2022/10/04 09:08:29;;;;;;;16.23;3.55;;;;;;;14.23;100.00;101442.72;4918479;29;20051;-80
2022/10/04 09:11:33;;;;;;;24.63;4.35;;;;;;;14.34;100.00;101454.84;4936089;29;20494;-80
2022/10/04 09:14:11;;;;;;;21.27;3.90;;;;;;;14.36;100.00;101463.56;4914321;29;20051;-80
2022/10/04 09:16:36;;;;;;;20.88;4.65;;;;;;;14.41;100.00;101460.25;4937150;29;20038;-80
2022/10/04 09:19:32;;;;;;;20.98;4.38;;;;;;;14.43;100.00;101456.28;4920929;29;20028;-80
2022/10/04 09:22:16;;;;;;;22.30;4.40;;;;;;;14.50;100.00;101451.75;4922533;29;20032;-80
2022/10/04 09:25:09;;;;;;;23.38;4.78;;;;;;;14.51;100.00;101458.81;4941653;29;20024;-80
2022/10/04 09:27:57;;;;;;;15.82;4.70;;;;;;;14.49;100.00;101462.75;4924936;29;20086;-80
2022/10/04 09:30:49;;;;;;;22.15;5.15;;;;;;;14.42;100.00;101449.19;4913363;29;20502;-80
2022/10/04 09:34:00;;;;;;;22.27;5.10;;;;;;;14.38;100.00;101447.97;4936247;29;20051;-80
2022/10/04 09:36:35;;;;;;;23.50;5.93;;;;;;;14.53;100.00;101464.84;4839867;29;20034;-80
2022/10/04 09:39:22;;;;;;;19.00;5.07;;;;;;;14.53;100.00;101472.13;4922996;29;20499;-81
2022/10/04 09:42:16;;;;;;;22.50;5.45;;;;;;;14.46;100.00;101430.66;4921476;29;20036;-80
2022/10/04 09:45:04;;;;;;;18.20;5.00;;;;;;;14.50;100.00;101440.91;4923239;29;20028;-80
2022/10/04 09:48:06;;;;;;;23.17;4.45;;;;;;;14.65;100.00;101459.63;4922558;29;20027;-80
2022/10/04 09:50:46;;;;;;;11.63;3.85;;;;;;;14.79;100.00;101463.16;4941381;29;20024;-81
2022/10/04 09:53:15;;;;;;;16.17;3.83;;;;;;;14.85;100.00;101470.44;4922139;29;20090;-80
2022/10/04 09:56:12;;;;;;;16.08;3.60;;;;;;;14.70;100.00;101438.19;4921454;29;20036;-80
2022/10/04 09:58:45;;;;;;;16.80;3.45;;;;;;;14.92;100.00;101465.00;4908316;29;20037;-80
2022/10/04 10:01:15;;;;;;;13.15;3.10;;;;;;;14.94;100.00;101450.22;4921357;29;20035;-80
2022/10/04 10:04:12;;;;;;;17.95;3.25;;;;;;;15.05;100.00;101462.28;4924564;29;20130;-81
2022/10/04 10:07:04;;;;;;;12.73;3.35;;;;;;;15.11;100.00;101450.59;4929207;29;20030;-80
2022/10/04 10:16:00;;;;;;;15.55;2.50;;;;;;;15.40;100.00;101443.81;4944729;29;20142;-80
2022/10/04 10:18:54;;;;;;;12.70;2.10;;;;;;;15.46;100.00;101451.09;4913759;29;20505;-80
2022/10/04 10:21:35;;;;;;;14.70;2.45;;;;;;;15.40;100.00;101424.00;4925453;29;20044;-80
2022/10/04 10:24:12;;;;;;;15.77;2.33;;;;;;;15.63;100.00;101447.84;4926737;29;20039;-80
2022/10/04 10:27:03;;;;;;;14.55;2.72;;;;;;;15.73;100.00;101446.38;4944545;29;20062;-80
2022/10/04 10:29:56;;;;;;;13.98;2.70;;;;;;;15.85;100.00;101454.63;4926723;29;20134;-80
2022/10/04 10:32:37;;;;;;;14.90;2.92;;;;;;;15.86;100.00;101447.31;4921511;29;20058;-80
2022/10/04 10:35:24;;;;;;;13.90;2.92;;;;;;;15.96;100.00;101443.09;4936434;29;20439;-80
2022/10/04 10:38:14;;;;;;;12.05;2.63;;;;;;;15.92;100.00;101455.44;4921234;29;20040;-80
2022/10/04 10:41:29;;;;;;;16.27;2.92;;;;;;;15.80;100.00;101451.75;4937587;29;20035;-80
2022/10/04 10:44:09;;;;;;;14.07;2.75;;;;;;;15.78;100.00;101450.31;4919348;29;20498;-79
2022/10/04 10:46:51;;;;;;;11.98;2.78;;;;;;;15.74;100.00;101453.47;4919757;29;20467;-80
2022/10/04 10:49:47;;;;;;;11.98;2.88;;;;;;;15.90;100.00;101451.28;4920518;29;20082;-80
2022/10/04 10:52:41;;;;;;;13.85;3.00;;;;;;;15.92;100.00;101444.56;4921228;29;20058;-80
2022/10/04 10:55:28;;;;;;;12.40;2.90;;;;;;;15.95;100.00;101446.03;4919854;29;20059;-80
2022/10/04 10:58:08;;;;;;;16.10;3.22;;;;;;;15.81;100.00;101434.44;4919275;29;20123;-80
2022/10/04 11:00:58;;;;;;;15.25;3.08;;;;;;;15.75;100.00;101443.44;4918371;29;20486;-80
2022/10/04 11:03:32;;;;;;;12.90;2.60;;;;;;;15.79;100.00;101432.97;4936027;29;20110;-80
2022/10/04 11:06:12;;;;;;;10.68;2.60;;;;;;;15.82;100.00;101427.13;4918634;29;20039;-80
2022/10/04 11:08:57;;;;;;;13.95;2.47;;;;;;;15.86;100.00;101425.63;4919011;29;20051;-79
2022/10/04 11:11:56;;;;;;;10.27;2.50;;;;;;;15.89;100.00;101420.59;4918763;29;20111;-79
2022/10/04 11:14:22;;;;;;;12.25;2.58;;;;;;;15.85;100.00;101418.53;4935679;29;20031;-80
2022/10/04 11:17:26;;;;;;;13.05;2.83;;;;;;;15.85;100.00;101413.94;4918268;29;20111;-79
2022/10/04 11:20:16;;;;;;;18.25;3.30;;;;;;;15.85;100.00;101411.22;4935796;29;20467;-80
2022/10/04 11:23:08;;;;;;;10.93;3.33;;;;;;;15.80;100.00;101402.09;4918212;29;20083;-79
2022/10/04 11:25:45;;;;;;;15.60;4.03;;;;;;;15.84;100.00;101406.84;4918374;29;20031;-81
2022/10/04 11:28:26;;;;;;;12.77;3.35;;;;;;;15.77;100.00;101387.06;4918731;29;20118;-80
2022/10/04 11:30:57;;;;;;;17.90;3.63;;;;;;;15.85;100.00;101399.53;4918283;29;20159;-80
2022/10/04 11:33:47;;;;;;;16.02;3.97;;;;;;;15.79;100.00;101398.53;4935440;29;20031;-80
2022/10/04 11:36:24;;;;;;;13.23;3.92;;;;;;;15.79;100.00;101400.41;4935380;29;20035;-80
2022/10/04 11:39:12;;;;;;;16.90;3.90;;;;;;;15.82;100.00;101392.66;4918497;29;20115;-80
2022/10/04 11:41:52;;;;;;;20.05;3.80;;;;;;;15.88;100.00;101399.94;4935789;29;20047;-80
2022/10/04 11:44:55;;;;;;;17.17;3.92;;;;;;;16.02;100.00;101395.22;4920253;29;20032;-80
2022/10/04 11:47:27;;;;;;;15.27;3.80;;;;;;;16.05;100.00;101408.38;4936842;29;20036;-80
2022/10/04 11:49:59;;;;;;;11.48;3.00;;;;;;;16.03;100.00;101410.47;4918863;29;20550;-80
2022/10/04 11:52:27;;;;;;;14.98;3.55;;;;;;;16.12;100.00;101408.31;4935819;29;20514;-80
2022/10/04 11:55:30;;;;;;;14.38;3.42;;;;;;;16.13;100.00;101396.41;4918343;29;20031;-80
2022/10/04 11:58:18;;;;;;;16.08;3.58;;;;;;;16.11;100.00;101393.09;4905786;29;20130;-79
2022/10/04 12:01:02;;;;;;;12.15;3.33;;;;;;;16.11;100.00;101384.94;4934971;29;20023;-79
2022/10/04 12:03:43;;;;;;;12.07;3.40;;;;;;;16.08;100.00;101394.34;4935480;29;20043;-79
2022/10/04 12:06:14;;;;;;;12.15;2.90;;;;;;;16.04;100.00;101392.31;4917444;29;20035;-79
2022/10/04 12:09:06;;;;;;;17.73;3.15;;;;;;;16.04;100.00;101392.31;4918032;29;20100;-80
2022/10/04 12:15:02;;;;;;;16.25;2.90;;;;;;;16.12;100.00;101389.31;4923948;29;20112;-79
2022/10/04 12:18:05;;;;;;;12.95;2.58;;;;;;;16.18;100.00;101393.84;4934756;29;20054;-79
2022/10/04 12:21:15;;;;;;;11.02;2.47;;;;;;;16.20;100.00;101365.44;4903783;29;20027;-80
2022/10/04 12:24:08;;;;;;;15.65;2.78;;;;;;;16.37;100.00;101382.00;4871923;29;20590;-79
2022/10/04 12:27:01;;;;;;;16.00;2.65;;;;;;;16.53;100.00;101372.44;4898713;29;20036;-80